Stations météo

réclame
Mon MeteoGroup
Dourbes, Belgique (6455): Température de l'air & dewpoint: 12.02.2019 17:00:00 - 18.02.2019 17:00:00 (CET)Dourbes, Belgique (6455): Vitesse du vent & gusts: 12.02.2019 17:00:00 - 18.02.2019 17:00:00 (CET)Dourbes, Belgique (6455): Direction du vent: 12.02.2019 17:00:00 - 18.02.2019 17:00:00 (CET)Dourbes, Belgique (6455): reduced air pressure: 12.02.2019 17:00:00 - 18.02.2019 17:00:00 (CET)Dourbes, Belgique (6455): Ensoleillement: 12.02.2019 17:00:00 - 18.02.2019 17:00:00 (CET)Dourbes, Belgique (6455): Quantités de précipitations: 12.02.2019 17:00:00 - 18.02.2019 17:00:00 (CET)
Date & Time tt [°C] td [°C] ff [km/h] ff [knt] fx [km/h] fx [knt] dd ppp [hPa] sd [min] rr [mm]
18.02.2019 17:00:00 12,1 2,3 17 9 32 17 S 1016,0 60 0,0
18.02.2019 16:00:00 13,4 2,1 16 9 34 18 S 1015,7 60 0,0
18.02.2019 15:00:00 14,5 1,3 13 7 22 12 S 1015,8 60 0,0
18.02.2019 14:00:00 14,7 0,9 10 5 16 9 S 1016,2 60 0,0
18.02.2019 13:00:00 13,6 0,5 7 4 15 8 SSE 1017,0 60 0,0
18.02.2019 12:00:00 13,0 1,4 7 4 16 8 SSW 1017,8 60 0,0
18.02.2019 11:00:00 10,4 1,1 14 7 21 11 S 1018,3 60 0,0
18.02.2019 10:00:00 7,7 0,8 10 5 18 10 S 1018,9 60 0,0
18.02.2019 09:00:00 4,8 -0,3 6 4 11 6 S 1019,5 50 0,0
18.02.2019 08:00:00 4,4 -0,5 4 2 16 9 SSW 1019,3 0 0,0
18.02.2019 07:00:00 6,0 0,2 7 4 13 7 S 1019,1 0 0,0
18.02.2019 06:00:00 5,7 -0,8 6 3 13 7 S 1019,5 0 0,0
18.02.2019 05:00:00 6,5 -0,8 7 4 11 6 SSE 1019,3 0 0,0
18.02.2019 04:00:00 6,8 -1,0 5 3 15 8 SE 1019,5 0 0,0
18.02.2019 03:00:00 8,4 -0,8 10 6 16 9 SSE 1019,7 0 0,0
18.02.2019 02:00:00 8,9 -1,1 9 5 16 9 SSE 1019,8 0 0,0
18.02.2019 01:00:00 8,5 -2,7 4 2 15 8 SSE 1020,0 0 0,0
18.02.2019 00:00:00 9,5 -2,3 9 5 18 10 SSE 1019,9 0 0,0
17.02.2019 23:00:00 9,9 -2,1 9 5 16 9 S 1020,1 0 0,0
17.02.2019 22:00:00 10,6 -1,6 10 5 16 9 SSE 1020,2 0 0,0
17.02.2019 21:00:00 11,4 -1,7 10 5 25 13 S 1019,9 0 0,0
17.02.2019 20:00:00 11,7 -2,0 13 7 27 14 S 1019,8 0 0,0
17.02.2019 19:00:00 12,3 -2,6 11 6 21 11 S 1019,4 0 0,0
17.02.2019 18:00:00 13,4 -2,9 7 4 27 14 S 1018,9 35 0,0
17.02.2019 17:00:00 14,7 -2,1 14 7 29 15 SSE 1018,8 60 0,0
17.02.2019 16:00:00 15,9 -2,1 10 5 31 17 S 1019,0 60 0,0
17.02.2019 15:00:00 16,0 -1,0 15 8 36 19 SSW 1019,4 60 0,0
17.02.2019 14:00:00 15,2 -0,6 14 7 34 19 SSW 1019,8 60 0,0
17.02.2019 13:00:00 14,7 -0,3 14 8 30 16 S 1020,2 60 0,0
17.02.2019 12:00:00 13,3 0,3 14 7 25 14 S 1020,6 60 0,0
17.02.2019 11:00:00 10,4 1,6 11 6 22 12 SSE 1021,1 60 0,0
17.02.2019 10:00:00 7,9 2,9 4 2 6 3 E 1021,5 60 0,0
17.02.2019 09:00:00 3,8 2,2 4 2 6 4 E 1022,2 38 0,0
17.02.2019 08:00:00 2,7 1,6 5 3 8 4 ENE 1022,3 0 0,0
17.02.2019 07:00:00 2,7 1,4 4 2 8 5 SSW 1022,4 0 0,0
17.02.2019 06:00:00 2,2 1,2 0 0 5 3 N 1022,9 0 0,0
17.02.2019 05:00:00 1,6 0,6 4 2 5 3 E 1023,1 0 0,0
17.02.2019 04:00:00 2,4 1,0 0 0 5 3 N 1023,6 0 0,0
17.02.2019 03:00:00 3,2 1,0 4 2 6 3 N 1024,1 0 0,0
17.02.2019 02:00:00 6,2 3,0 0 0 13 7 N 1024,0 0 0,0
17.02.2019 01:00:00 5,7 2,9 4 2 8 5 S 1024,5 0 0,0
17.02.2019 00:00:00 4,5 0,9 4 2 9 5 E 1025,0 0 0,0
16.02.2019 23:00:00 6,6 1,3 4 2 8 5 S 1025,3 0 0,0
16.02.2019 22:00:00 7,6 1,1 4 2 5 3 WNW 1025,0 0 0,0
16.02.2019 21:00:00 8,9 1,3 6 3 9 5 S 1025,1 0 0,0
16.02.2019 20:00:00 8,8 1,6 0 0 8 4 N 1025,2 0 0,0
16.02.2019 19:00:00 10,4 2,4 4 2 10 5 S 1025,2 0 0,0
16.02.2019 18:00:00 12,3 1,8 7 4 16 8 S 1024,9 29 0,0
16.02.2019 17:00:00 14,1 1,4 9 5 18 10 SSW 1025,0 60 0,0
16.02.2019 16:00:00 15,3 1,2 10 6 20 11 S 1025,1 60 0,0
16.02.2019 15:00:00 16,7 1,3 11 6 18 10 WSW 1025,2 60 0,0
16.02.2019 14:00:00 16,4 0,1 10 5 21 11 WSW 1025,6 60 0,0
16.02.2019 13:00:00 15,8 2,5 11 6 15 8 SW 1026,0 60 0,0
16.02.2019 12:00:00 13,2 3,2 8 4 12 7 SW 1026,4 60 0,0
16.02.2019 11:00:00 9,9 2,7 7 4 13 7 S 1026,6 60 0,0
16.02.2019 10:00:00 6,7 1,3 5 3 13 7 SSE 1027,2 60 0,0
16.02.2019 09:00:00 4,5 0,3 5 3 17 9 S 1027,4 46 0,0
16.02.2019 08:00:00 4,3 0,1 6 3 14 8 SSE 1026,7 0 0,0
16.02.2019 07:00:00 4,7 0,2 7 4 17 9 SSE 1026,4 0 0,0
16.02.2019 06:00:00 5,2 0,8 6 3 17 9 S 1026,2 0 0,0
16.02.2019 05:00:00 5,6 0,5 12 6 23 12 S 1026,6 0 0,0
16.02.2019 04:00:00 5,9 0,5 9 5 18 10 S 1026,7 0 0,0
16.02.2019 03:00:00 7,6 1,0 13 7 20 11 SSE 1026,6 0 0,0
16.02.2019 02:00:00 7,8 1,1 9 5 15 8 S 1026,7 0 0,0
16.02.2019 01:00:00 5,8 0,3 4 2 6 4 WNW 1027,1 0 0,0
16.02.2019 00:00:00 7,8 0,6 4 2 10 5 S 1026,7 0 0,0
15.02.2019 23:00:00 8,9 1,0 5 3 9 5 ESE 1027,0 0 0,0
15.02.2019 22:00:00 8,6 0,3 4 2 10 5 SE 1027,4 0 0,0
15.02.2019 21:00:00 9,7 0,9 4 2 6 4 E 1027,4 0 0,0
15.02.2019 20:00:00 9,0 -0,4 4 2 8 5 E 1027,7 0 0,0
15.02.2019 19:00:00 10,3 -1,1 4 2 13 7 S 1027,8 0 0,0
15.02.2019 18:00:00 13,4 -1,6 9 5 17 9 S 1027,3 34 0,0
15.02.2019 17:00:00 15,7 -2,0 10 5 22 12 S 1027,2 60 0,0
15.02.2019 16:00:00 16,8 -1,0 11 6 21 12 S 1027,6 60 0,0
15.02.2019 15:00:00 16,9 -1,2 11 6 18 10 S 1028,3 60 0,0
15.02.2019 14:00:00 16,1 -1,3 12 6 28 15 S 1029,0 60 0,0
15.02.2019 13:00:00 15,2 -1,6 18 10 26 14 S 1029,8 60 0,0
15.02.2019 12:00:00 13,7 0,5 10 5 16 8 S 1030,5 60 0,0
15.02.2019 11:00:00 10,5 1,0 8 4 12 7 S 1030,9 60 0,0
15.02.2019 10:00:00 5,1 1,4 0 0 3 2 N 1031,8 60 0,0
15.02.2019 09:00:00 1,0 -0,9 0 0 5 3 N 1032,3 46 0,0
15.02.2019 08:00:00 -0,2 -1,5 4 2 6 3 E 1032,3 0 0,0
15.02.2019 07:00:00 0,1 -1,8 4 2 5 3 E 1032,1 0 0,0
15.02.2019 06:00:00 0,0 -2,0 4 2 12 7 SE 1032,3 0 0,0
15.02.2019 05:00:00 2,7 -1,3 8 4 13 7 E 1032,2 0 0,0
15.02.2019 04:00:00 3,0 -1,2 7 4 12 7 E 1032,3 0 0,0
15.02.2019 03:00:00 2,4 -1,6 4 2 6 4 E 1032,5 0 0,0
15.02.2019 02:00:00 3,0 -2,0 4 2 10 5 NE 1033,0 0 0,0
15.02.2019 01:00:00 4,8 -2,8 4 2 10 5 NNE 1032,7 0 0,0
15.02.2019 00:00:00 7,8 -2,0 5 3 11 6 ENE 1032,4 0 0,0
14.02.2019 23:00:00 7,2 -1,6 6 4 12 6 E 1032,7 0 0,0
14.02.2019 22:00:00 7,3 -0,5 5 3 10 5 NE 1032,7 0 0,0
14.02.2019 21:00:00 7,5 0,0 6 4 14 8 E 1032,7 0 0,0
14.02.2019 20:00:00 9,1 -0,5 9 5 13 7 E 1032,8 0 0,0
14.02.2019 19:00:00 10,2 -0,5 7 4 10 5 E 1032,7 0 0,0
14.02.2019 18:00:00 12,7 -0,4 6 3 14 7 ESE 1032,1 33 0,0
14.02.2019 17:00:00 14,8 -1,0 7 4 16 9 SE 1032,1 60 0,0
14.02.2019 16:00:00 15,4 0,5 4 2 9 5 E 1032,6 60 0,0
14.02.2019 15:00:00 14,7 2,1 4 2 9 5 ESE 1032,8 60 0,0
14.02.2019 14:00:00 13,2 2,5 4 2 9 5 ESE 1033,6 60 0,0
14.02.2019 13:00:00 10,0 2,8 7 4 10 5 ENE 1034,5 60 0,0
14.02.2019 12:00:00 7,5 2,4 4 2 7 4 N 1035,1 60 0,0
14.02.2019 11:00:00 4,5 1,7 4 2 9 5 SSE 1035,5 60 0,0
14.02.2019 10:00:00 2,3 1,1 4 2 8 5 NE 1035,9 60 0,0
14.02.2019 09:00:00 -1,1 -1,1 5 3 7 4 E 1036,4 45 0,0
14.02.2019 08:00:00 -3,3 -3,3 4 2 6 3 SSW 1036,2 0 0,0
14.02.2019 07:00:00 -2,1 -2,1 4 2 6 4 ESE 1035,5 0 0,0
14.02.2019 06:00:00 -2,2 -2,3 4 2 6 3 E 1035,7 0 0,0
14.02.2019 05:00:00 -1,7 -1,9 4 2 9 5 ESE 1035,5 0 0,0
14.02.2019 04:00:00 -2,4 -2,6 4 2 8 4 ESE 1036,0 0 0,0
14.02.2019 03:00:00 -1,8 -2,2 4 2 8 4 NE 1035,7 0 0,0
14.02.2019 02:00:00 -1,4 -1,8 0 0 7 4 N 1035,8 0 0,0
14.02.2019 01:00:00 -0,6 -2,3 4 2 9 5 E 1036,0 0 0,0
14.02.2019 00:00:00 0,2 -1,7 4 2 7 4 E 1035,7 0 0,0
13.02.2019 23:00:00 1,0 -1,5 4 2 7 4 SE 1035,8 0 0,0
13.02.2019 22:00:00 0,9 -1,0 4 2 5 3 ENE 1036,2 0 0,0
13.02.2019 21:00:00 1,4 -0,7 0 0 5 3 N 1036,1 0 0,0
13.02.2019 20:00:00 2,7 0,3 4 2 6 4 SE 1035,8 0 0,0
13.02.2019 19:00:00 4,0 0,2 4 2 6 3 SSE 1035,9 0 0,0
13.02.2019 18:00:00 5,9 0,2 5 3 11 6 S 1035,6 32 0,0
13.02.2019 17:00:00 7,4 0,5 6 3 13 7 S 1035,2 60 0,0
13.02.2019 16:00:00 7,6 1,2 6 3 15 8 S 1035,1 60 0,0
13.02.2019 15:00:00 7,4 1,5 7 4 16 8 S 1035,6 60 0,0
13.02.2019 14:00:00 7,0 1,9 6 4 14 8 SW 1036,0 60 0,0
13.02.2019 13:00:00 6,2 1,7 8 4 14 8 S 1036,4 60 0,0
13.02.2019 12:00:00 5,0 2,5 5 3 9 5 SW 1037,1 60 0,0
13.02.2019 11:00:00 2,1 1,9 4 2 7 4 ESE 1037,2 60 0,0
13.02.2019 10:00:00 0,0 0,0 0 0 5 3 N 1037,7 60 0,1
13.02.2019 09:00:00 -2,0 -2,0 4 2 6 3 ENE 1037,7 43 0,0
13.02.2019 08:00:00 -2,6 -2,6 4 2 5 3 ENE 1037,4 0 0,0
13.02.2019 07:00:00 -2,0 -2,0 4 2 5 3 E 1037,2 0 0,0
13.02.2019 06:00:00 -2,0 -2,0 0 0 3 1 N 1037,3 0 0,0
13.02.2019 05:00:00 -2,0 -2,0 0 0 6 3 N 1037,5 0 0,0
13.02.2019 04:00:00 -2,0 -2,0 4 2 5 3 E 1037,9 0 0,0
13.02.2019 03:00:00 -0,6 -0,6 4 2 4 2 ENE 1038,1 0 0,0
13.02.2019 02:00:00 -0,6 -0,6 4 2 8 5 W 1037,5 0 0,0
13.02.2019 01:00:00 -0,7 -0,7 4 2 6 3 SSW 1037,8 0 0,0
13.02.2019 00:00:00 -0,7 -0,7 4 2 10 5 S 1037,2 0 0,0
12.02.2019 23:00:00 -0,4 -0,4 7 4 10 5 SSW 1037,3 0 0,0
12.02.2019 22:00:00 0,4 0,4 7 4 12 7 SSE 1037,0 0 0,0
12.02.2019 21:00:00 -0,1 -0,4 4 2 7 4 SSW 1037,3 0 0,0
12.02.2019 20:00:00 1,1 0,5 5 3 10 6 S 1036,8 0 0,0
12.02.2019 19:00:00 1,9 0,7 7 4 12 7 SSW 1036,8 0 0,0
12.02.2019 18:00:00 3,2 1,0 8 4 16 8 SSW 1036,3 7 0,0
12.02.2019 17:00:00 4,8 1,6 11 6 22 12 S 1035,7 60 0,0

tt = Température de l'air
td = dewpoint
ff = Vitesse du vent
fx = gusts
dd = Direction du vent
ppp = reduced air pressure
sd = Ensoleillement
rr = Quantités de précipitations

stations d'obs. à proximité